Hamnavoe — VSTY7 — position and weather

sailwx.info

Track history (hours):
 
Tides and Currents Weather Stations Pressure Air Temp Water Temp Dewpoint Dewpoint Depression Visibility Wind Speed Wind Dir Waves Ship Positions

Hamnavoe

Operator: NorthLink Orkey & Shetland Ferries Ltd

Last reported at 2019-Nov-11 18:30 UTC. Time now 2019-Nov-11 22:33 UTC.
Position N 58°37' W 003°32'.

Length 112 m; draft 4.4 m.

Type: Ship. MMSI: 235449000.

Date/timePositionNaut miles runAvg speedWind from/ knotsBaromVisibWave heightAir tempDewpointWater temp
2019-Nov-11 18:30N 58°37' W 003°32'10 9.7
2019-Nov-11 17:30N 58°46' W 003°29'1019.4
2019-Nov-11 17:00N 58°56' W 003°26'5 9.1
2019-Nov-11 16:30N 58°58' W 003°18'0 0.0
2019-Nov-11 15:00N 58°58' W 003°18'0 0.0
2019-Nov-11 12:57N 58°58' W 003°18'0 0.0
2019-Nov-11 12:00N 58°58' W 003°18'0 0.0
2019-Nov-11 10:30N 58°58' W 003°18'1610.6
2019-Nov-11 09:01N 58°43' W 003°30'16 5.2
2019-Nov-11 05:59N 58°58' W 003°18'0 0.0
2019-Nov-11 05:29N 58°58' W 003°18'0 0.0
2019-Nov-11 03:26N 58°58' W 003°18'0 0.0
2019-Nov-11 02:20N 58°58' W 003°18'0 0.0
2019-Nov-11 01:59N 58°58' W 003°18'0 0.0
2019-Nov-11 00:56N 58°58' W 003°18'0 0.0
2019-Nov-11 00:26N 58°58' W 003°18'0 0.0
2019-Nov-10 23:26N 58°58' W 003°18'0 0.0
2019-Nov-10 22:29N 58°58' W 003°18'0 0.0
2019-Nov-10 20:59N 58°58' W 003°18'22 9.1
2019-Nov-10 18:30N 58°37' W 003°32'22 9.0
2019-Nov-10 16:00N 58°58' W 003°18'1 0.1
2019-Nov-10 09:00N 58°57' W 003°18'1 0.2
2019-Nov-10 05:59N 58°58' W 003°18'0 0.0
2019-Nov-10 03:59N 58°58' W 003°18'0 0.0
2019-Nov-10 00:59N 58°58' W 003°18'0 0.0
2019-Nov-09 23:29N 58°58' W 003°18'0 0.0
2019-Nov-09 22:59N 58°58' W 003°18'0 0.0
2019-Nov-09 16:30N 58°58' W 003°18'0 0.0
2019-Nov-09 15:27N 58°58' W 003°18'22 4.5
2019-Nov-09 10:30N 58°37' W 003°32'5 9.9
2019-Nov-09 10:00N 58°42' W 003°31'18 3.9
2019-Nov-09 05:29N 58°58' W 003°18'0 0.0
2019-Nov-09 03:29N 58°58' W 003°18'0 0.0
2019-Nov-09 02:59N 58°58' W 003°18'0 0.0
2019-Nov-09 01:59N 58°58' W 003°18'0 0.0
2019-Nov-09 00:26N 58°58' W 003°18'0 0.0
2019-Nov-08 23:29N 58°58' W 003°18'0 0.0
2019-Nov-08 21:59N 58°58' W 003°18'0 0.0
2019-Nov-08 21:29N 58°58' W 003°18'0 0.0
2019-Nov-08 20:59N 58°58' W 003°18'0 0.0
2019-Nov-08 20:30N 58°58' W 003°18'12 4.0
2019-Nov-08 17:30N 58°47' W 003°29'1211.9
2019-Nov-08 16:31N 58°58' W 003°18'1 0.1
2019-Nov-08 11:00N 58°57' W 003°17'9 6.0
2019-Nov-08 09:30N 58°51' W 003°28'918.2
2019-Nov-08 09:00N 58°42' W 003°31'5 9.8
2019-Nov-08 08:30N 58°37' W 003°32'1610.6
2019-Nov-08 07:00N 58°52' W 003°28'8 1.0
2019-Nov-07 23:28N 58°58' W 003°18'0 0.0
2019-Nov-07 22:58N 58°58' W 003°18'0 0.0
2019-Nov-07 21:28N 58°58' W 003°18'0 0.0
2019-Nov-07 15:28N 58°58' W 003°18'0 0.0
2019-Nov-07 14:28N 58°58' W 003°18'0 0.0
2019-Nov-07 12:00N 58°58' W 003°18'0 0.0
2019-Nov-07 11:00N 58°58' W 003°18'17 4.8
2019-Nov-07 07:30N 58°42' W 003°30'17 4.2
2019-Nov-07 03:30N 58°58' W 003°18'0 0.0
2019-Nov-07 03:00N 58°58' W 003°18'0 0.0
2019-Nov-07 02:30N 58°58' W 003°18'0 0.0
2019-Nov-06 21:00N 58°58' W 003°18'0 0.0
2019-Nov-06 15:31N 58°58' W 003°18'0 0.0
2019-Nov-06 15:01N 58°58' W 003°18'0 0.0
2019-Nov-06 14:30N 58°58' W 003°18'0 0.0
2019-Nov-06 14:00N 58°58' W 003°18'0 0.0
2019-Nov-06 13:30N 58°58' W 003°18'22 4.5
2019-Nov-06 08:30N 58°37' W 003°32'2211.2
2019-Nov-06 06:30N 58°58' W 003°18'0 0.1
2019-Nov-06 05:00N 58°58' W 003°18'0 0.0
2019-Nov-06 04:00N 58°58' W 003°18'0 0.0
2019-Nov-06 02:00N 58°58' W 003°18'0 0.0
2019-Nov-06 00:00N 58°58' W 003°18'0 0.0
2019-Nov-05 22:30N 58°58' W 003°18'22 5.6
2019-Nov-05 18:30N 58°37' W 003°32'0 0.1
2019-Nov-05 18:00N 58°37' W 003°32'917.8
2019-Nov-05 17:30N 58°45' W 003°30'14 5.3
2019-Nov-05 14:55N 58°58' W 003°18'0 0.0
2019-Nov-05 12:55N 58°58' W 003°18'0 0.0
2019-Nov-05 11:28N 58°58' W 003°18'0 0.0
2019-Nov-05 10:55N 58°58' W 003°18'22 9.3
2019-Nov-05 08:30N 58°37' W 003°32'22 8.8
2019-Nov-05 05:56N 58°58' W 003°18'0 0.0
2019-Nov-05 03:29N 58°58' W 003°18'0 0.0
2019-Nov-05 00:29N 58°58' W 003°18'0 0.0
2019-Nov-04 23:59N 58°58' W 003°18'0 0.0
2019-Nov-04 22:56N 58°58' W 003°18'12 3.5
2019-Nov-04 19:30N 58°47' W 003°29'11 1.2
2019-Nov-04 10:01N 58°57' W 003°17'1 0.2
2019-Nov-04 05:29N 58°58' W 003°18'0 0.0
2019-Nov-04 04:56N 58°58' W 003°18'0 0.0
2019-Nov-04 02:59N 58°58' W 003°18'0 0.0
2019-Nov-04 00:59N 58°58' W 003°18'0 0.0
2019-Nov-03 23:59N 58°58' W 003°18'0 0.0
2019-Nov-03 21:26N 58°58' W 003°18'0 0.0
2019-Nov-03 20:56N 58°58' W 003°18'5 1.2
2019-Nov-03 17:00N 58°55' W 003°26'5 2.3
2019-Nov-03 14:54N 58°58' W 003°18'0 0.0
2019-Nov-03 14:31N 58°58' W 003°18'0 0.0
2019-Nov-03 13:30N 58°58' W 003°18'16 4.7
2019-Nov-03 10:00N 58°43' W 003°30'16 7.8
2019-Nov-03 07:55N 58°58' W 003°18'0 0.0
2019-Nov-03 06:28N 58°58' W 003°18'0 0.0
2019-Nov-03 05:55N 58°58' W 003°18'0 0.0
2019-Nov-03 01:31N 58°58' W 003°18'0 0.0
2019-Nov-02 21:58N 58°58' W 003°18'0 0.0
2019-Nov-02 21:28N 58°58' W 003°18'0 0.0
2019-Nov-02 20:30N 58°58' W 003°18'1414.1
2019-Nov-02 19:30N 58°45' W 003°30'917.3
2019-Nov-02 19:00N 58°37' W 003°32'0 0.3
2019-Nov-02 18:30N 58°37' W 003°32'0 0.4
2019-Nov-02 18:00N 58°37' W 003°32'918.3
2019-Nov-02 17:30N 58°46' W 003°29'3 0.4
2019-Nov-02 10:00N 58°42' W 003°31'1616.4
2019-Nov-02 09:00N 58°57' W 003°18'0 0.5
2019-Nov-02 08:27N 58°58' W 003°18'0 0.0
2019-Nov-02 07:30N 58°58' W 003°18'0 0.0
2019-Nov-02 06:00N 58°58' W 003°18'0 0.0
2019-Nov-02 05:00N 58°58' W 003°18'0 0.0
2019-Nov-02 02:00N 58°58' W 003°18'0 0.0
2019-Nov-02 01:30N 58°58' W 003°18'0 0.0
2019-Nov-02 01:00N 58°58' W 003°18'0 0.0
2019-Nov-02 00:30N 58°58' W 003°18'0 0.0
2019-Nov-02 00:00N 58°58' W 003°18'0 0.0
2019-Nov-01 23:30N 58°58' W 003°18'0 0.0
2019-Nov-01 23:00N 58°58' W 003°18'0 0.0
2019-Nov-01 22:30N 58°58' W 003°18'0 0.0
2019-Nov-01 22:00N 58°58' W 003°18'0 0.0
2019-Nov-01 21:30N 58°58' W 003°18'0 0.0
2019-Nov-01 21:00N 58°58' W 003°18'0 0.0
2019-Nov-01 20:30N 58°58' W 003°18'4 7.6
2019-Nov-01 20:00N 58°56' W 003°24'918.2
2019-Nov-01 19:30N 58°47' W 003°29'918.6
2019-Nov-01 19:00N 58°38' W 003°31'  
Track history (hours):
 
Tides and Currents Weather Stations Pressure Air Temp Water Temp Dewpoint Dewpoint Depression Visibility Wind Speed Wind Dir Waves Ship Positions

Hamnavoe

Operator: NorthLink Orkey & Shetland Ferries Ltd

Last reported at 2019-Nov-11 18:30 UTC. Time now 2019-Nov-11 22:33 UTC.
Position N 58°37' W 003°32'.

Length 112 m; draft 4.4 m.

Type: Ship. MMSI: 235449000.

Date/timePositionNaut miles runAvg speedWind from/ knotsBaromVisibWave heightAir tempDewpointWater temp
2019-Nov-11 18:30N 58°37' W 003°32'10 9.7
2019-Nov-11 17:30N 58°46' W 003°29'1019.4
2019-Nov-11 17:00N 58°56' W 003°26'5 9.1
2019-Nov-11 16:30N 58°58' W 003°18'0 0.0
2019-Nov-11 15:00N 58°58' W 003°18'0 0.0
2019-Nov-11 12:57N 58°58' W 003°18'0 0.0
2019-Nov-11 12:00N 58°58' W 003°18'0 0.0
2019-Nov-11 10:30N 58°58' W 003°18'1610.6
2019-Nov-11 09:01N 58°43' W 003°30'16 5.2
2019-Nov-11 05:59N 58°58' W 003°18'0 0.0
2019-Nov-11 05:29N 58°58' W 003°18'0 0.0
2019-Nov-11 03:26N 58°58' W 003°18'0 0.0
2019-Nov-11 02:20N 58°58' W 003°18'0 0.0
2019-Nov-11 01:59N 58°58' W 003°18'0 0.0
2019-Nov-11 00:56N 58°58' W 003°18'0 0.0
2019-Nov-11 00:26N 58°58' W 003°18'0 0.0
2019-Nov-10 23:26N 58°58' W 003°18'0 0.0
2019-Nov-10 22:29N 58°58' W 003°18'0 0.0
2019-Nov-10 20:59N 58°58' W 003°18'22 9.1
2019-Nov-10 18:30N 58°37' W 003°32'22 9.0
2019-Nov-10 16:00N 58°58' W 003°18'1 0.1
2019-Nov-10 09:00N 58°57' W 003°18'1 0.2
2019-Nov-10 05:59N 58°58' W 003°18'0 0.0
2019-Nov-10 03:59N 58°58' W 003°18'0 0.0
2019-Nov-10 00:59N 58°58' W 003°18'0 0.0
2019-Nov-09 23:29N 58°58' W 003°18'0 0.0
2019-Nov-09 22:59N 58°58' W 003°18'0 0.0
2019-Nov-09 16:30N 58°58' W 003°18'0 0.0
2019-Nov-09 15:27N 58°58' W 003°18'22 4.5
2019-Nov-09 10:30N 58°37' W 003°32'5 9.9
2019-Nov-09 10:00N 58°42' W 003°31'18 3.9
2019-Nov-09 05:29N 58°58' W 003°18'0 0.0
2019-Nov-09 03:29N 58°58' W 003°18'0 0.0
2019-Nov-09 02:59N 58°58' W 003°18'0 0.0
2019-Nov-09 01:59N 58°58' W 003°18'0 0.0
2019-Nov-09 00:26N 58°58' W 003°18'0 0.0
2019-Nov-08 23:29N 58°58' W 003°18'0 0.0
2019-Nov-08 21:59N 58°58' W 003°18'0 0.0
2019-Nov-08 21:29N 58°58' W 003°18'0 0.0
2019-Nov-08 20:59N 58°58' W 003°18'0 0.0
2019-Nov-08 20:30N 58°58' W 003°18'12 4.0
2019-Nov-08 17:30N 58°47' W 003°29'1211.9
2019-Nov-08 16:31N 58°58' W 003°18'1 0.1
2019-Nov-08 11:00N 58°57' W 003°17'9 6.0
2019-Nov-08 09:30N 58°51' W 003°28'918.2
2019-Nov-08 09:00N 58°42' W 003°31'5 9.8
2019-Nov-08 08:30N 58°37' W 003°32'1610.6
2019-Nov-08 07:00N 58°52' W 003°28'8 1.0
2019-Nov-07 23:28N 58°58' W 003°18'0 0.0
2019-Nov-07 22:58N 58°58' W 003°18'0 0.0
2019-Nov-07 21:28N 58°58' W 003°18'0 0.0
2019-Nov-07 15:28N 58°58' W 003°18'0 0.0
2019-Nov-07 14:28N 58°58' W 003°18'0 0.0
2019-Nov-07 12:00N 58°58' W 003°18'0 0.0
2019-Nov-07 11:00N 58°58' W 003°18'17 4.8
2019-Nov-07 07:30N 58°42' W 003°30'17 4.2
2019-Nov-07 03:30N 58°58' W 003°18'0 0.0
2019-Nov-07 03:00N 58°58' W 003°18'0 0.0
2019-Nov-07 02:30N 58°58' W 003°18'0 0.0
2019-Nov-06 21:00N 58°58' W 003°18'0 0.0
2019-Nov-06 15:31N 58°58' W 003°18'0 0.0
2019-Nov-06 15:01N 58°58' W 003°18'0 0.0
2019-Nov-06 14:30N 58°58' W 003°18'0 0.0
2019-Nov-06 14:00N 58°58' W 003°18'0 0.0
2019-Nov-06 13:30N 58°58' W 003°18'22 4.5
2019-Nov-06 08:30N 58°37' W 003°32'2211.2
2019-Nov-06 06:30N 58°58' W 003°18'0 0.1
2019-Nov-06 05:00N 58°58' W 003°18'0 0.0
2019-Nov-06 04:00N 58°58' W 003°18'0 0.0
2019-Nov-06 02:00N 58°58' W 003°18'0 0.0
2019-Nov-06 00:00N 58°58' W 003°18'0 0.0
2019-Nov-05 22:30N 58°58' W 003°18'22 5.6
2019-Nov-05 18:30N 58°37' W 003°32'0 0.1
2019-Nov-05 18:00N 58°37' W 003°32'917.8
2019-Nov-05 17:30N 58°45' W 003°30'14 5.3
2019-Nov-05 14:55N 58°58' W 003°18'0 0.0
2019-Nov-05 12:55N 58°58' W 003°18'0 0.0
2019-Nov-05 11:28N 58°58' W 003°18'0 0.0
2019-Nov-05 10:55N 58°58' W 003°18'22 9.3
2019-Nov-05 08:30N 58°37' W 003°32'22 8.8
2019-Nov-05 05:56N 58°58' W 003°18'0 0.0
2019-Nov-05 03:29N 58°58' W 003°18'0 0.0
2019-Nov-05 00:29N 58°58' W 003°18'0 0.0
2019-Nov-04 23:59N 58°58' W 003°18'0 0.0
2019-Nov-04 22:56N 58°58' W 003°18'12 3.5
2019-Nov-04 19:30N 58°47' W 003°29'11 1.2
2019-Nov-04 10:01N 58°57' W 003°17'1 0.2
2019-Nov-04 05:29N 58°58' W 003°18'0 0.0
2019-Nov-04 04:56N 58°58' W 003°18'0 0.0
2019-Nov-04 02:59N 58°58' W 003°18'0 0.0
2019-Nov-04 00:59N 58°58' W 003°18'0 0.0
2019-Nov-03 23:59N 58°58' W 003°18'0 0.0
2019-Nov-03 21:26N 58°58' W 003°18'0 0.0
2019-Nov-03 20:56N 58°58' W 003°18'5 1.2
2019-Nov-03 17:00N 58°55' W 003°26'5 2.3
2019-Nov-03 14:54N 58°58' W 003°18'0 0.0
2019-Nov-03 14:31N 58°58' W 003°18'0 0.0
2019-Nov-03 13:30N 58°58' W 003°18'16 4.7
2019-Nov-03 10:00N 58°43' W 003°30'16 7.8
2019-Nov-03 07:55N 58°58' W 003°18'0 0.0
2019-Nov-03 06:28N 58°58' W 003°18'0 0.0
2019-Nov-03 05:55N 58°58' W 003°18'0 0.0
2019-Nov-03 01:31N 58°58' W 003°18'0 0.0
2019-Nov-02 21:58N 58°58' W 003°18'0 0.0
2019-Nov-02 21:28N 58°58' W 003°18'0 0.0
2019-Nov-02 20:30N 58°58' W 003°18'1414.1
2019-Nov-02 19:30N 58°45' W 003°30'917.3
2019-Nov-02 19:00N 58°37' W 003°32'0 0.3
2019-Nov-02 18:30N 58°37' W 003°32'0 0.4
2019-Nov-02 18:00N 58°37' W 003°32'918.3
2019-Nov-02 17:30N 58°46' W 003°29'3 0.4
2019-Nov-02 10:00N 58°42' W 003°31'1616.4
2019-Nov-02 09:00N 58°57' W 003°18'0 0.5
2019-Nov-02 08:27N 58°58' W 003°18'0 0.0
2019-Nov-02 07:30N 58°58' W 003°18'0 0.0
2019-Nov-02 06:00N 58°58' W 003°18'0 0.0
2019-Nov-02 05:00N 58°58' W 003°18'0 0.0
2019-Nov-02 02:00N 58°58' W 003°18'0 0.0
2019-Nov-02 01:30N 58°58' W 003°18'0 0.0
2019-Nov-02 01:00N 58°58' W 003°18'0 0.0
2019-Nov-02 00:30N 58°58' W 003°18'0 0.0
2019-Nov-02 00:00N 58°58' W 003°18'0 0.0
2019-Nov-01 23:30N 58°58' W 003°18'0 0.0
2019-Nov-01 23:00N 58°58' W 003°18'0 0.0
2019-Nov-01 22:30N 58°58' W 003°18'0 0.0
2019-Nov-01 22:00N 58°58' W 003°18'0 0.0
2019-Nov-01 21:30N 58°58' W 003°18'0 0.0
2019-Nov-01 21:00N 58°58' W 003°18'0 0.0
2019-Nov-01 20:30N 58°58' W 003°18'4 7.6
2019-Nov-01 20:00N 58°56' W 003°24'918.2
2019-Nov-01 19:30N 58°47' W 003°29'918.6
2019-Nov-01 19:00N 58°38' W 003°31'  

Dump ship's entire track history